sensor_id;sensor_type;location;lat;lon;timestamp;pressure;altitude;pressure_sealevel;temperature;humidity
8894;BME280;4483;48.622;9.230;2023-03-12T00:01:10;97555.63;;;-0.04;73.78
8894;BME280;4483;48.622;9.230;2023-03-12T00:03:38;97561.53;;;-0.05;73.85
8894;BME280;4483;48.622;9.230;2023-03-12T00:06:06;97564.94;;;-0.06;73.98
8894;BME280;4483;48.622;9.230;2023-03-12T00:08:33;97559.00;;;-0.05;74.64
8894;BME280;4483;48.622;9.230;2023-03-12T00:11:05;97561.53;;;-0.05;74.12
8894;BME280;4483;48.622;9.230;2023-03-12T00:13:32;97560.72;;;-0.06;74.31
8894;BME280;4483;48.622;9.230;2023-03-12T00:16:03;97559.00;;;-0.07;74.20
8894;BME280;4483;48.622;9.230;2023-03-12T00:18:30;97561.56;;;-0.08;74.12
8894;BME280;4483;48.622;9.230;2023-03-12T00:20:58;97557.31;;;-0.09;74.20
8894;BME280;4483;48.622;9.230;2023-03-12T00:23:25;97553.97;;;-0.14;74.94
8894;BME280;4483;48.622;9.230;2023-03-12T00:25:52;97556.50;;;-0.11;74.80
8894;BME280;4483;48.622;9.230;2023-03-12T00:28:19;97550.59;;;-0.15;74.50
8894;BME280;4483;48.622;9.230;2023-03-12T00:30:45;97556.50;;;-0.14;74.53
8894;BME280;4483;48.622;9.230;2023-03-12T00:33:12;97553.13;;;-0.18;74.51
8894;BME280;4483;48.622;9.230;2023-03-12T00:35:39;97554.81;;;-0.18;74.57
8894;BME280;4483;48.622;9.230;2023-03-12T00:38:07;97548.09;;;-0.21;74.66
8894;BME280;4483;48.622;9.230;2023-03-12T00:40:34;97555.69;;;-0.24;75.27
8894;BME280;4483;48.622;9.230;2023-03-12T00:43:00;97551.50;;;-0.28;74.88
8894;BME280;4483;48.622;9.230;2023-03-12T00:45:27;97547.28;;;-0.30;75.56
8894;BME280;4483;48.622;9.230;2023-03-12T00:47:54;97550.66;;;-0.31;75.57
8894;BME280;4483;48.622;9.230;2023-03-12T00:50:21;97548.97;;;-0.34;75.80
8894;BME280;4483;48.622;9.230;2023-03-12T00:52:47;97548.97;;;-0.35;75.53
8894;BME280;4483;48.622;9.230;2023-03-12T00:55:16;97545.59;;;-0.37;75.35
8894;BME280;4483;48.622;9.230;2023-03-12T00:57:42;97551.50;;;-0.38;76.19
8894;BME280;4483;48.622;9.230;2023-03-12T01:00:11;97553.19;;;-0.40;75.88
8894;BME280;4483;48.622;9.230;2023-03-12T01:02:38;97535.50;;;-0.45;75.62
8894;BME280;4483;48.622;9.230;2023-03-12T01:05:07;97542.25;;;-0.47;76.30
8894;BME280;4483;48.622;9.230;2023-03-12T01:07:34;97545.63;;;-0.49;76.41
8894;BME280;4483;48.622;9.230;2023-03-12T01:10:01;97538.88;;;-0.50;76.46
8894;BME280;4483;48.622;9.230;2023-03-12T01:12:30;97552.38;;;-0.51;76.25
8894;BME280;4483;48.622;9.230;2023-03-12T01:14:56;97540.56;;;-0.52;76.66
8894;BME280;4483;48.622;9.230;2023-03-12T01:17:23;97543.13;;;-0.54;76.54
8894;BME280;4483;48.622;9.230;2023-03-12T01:19:49;97553.22;;;-0.52;77.04
8894;BME280;4483;48.622;9.230;2023-03-12T01:22:16;97546.50;;;-0.53;77.11
8894;BME280;4483;48.622;9.230;2023-03-12T01:24:43;97549.84;;;-0.51;77.87
8894;BME280;4483;48.622;9.230;2023-03-12T01:27:10;97538.03;;;-0.49;77.81
8894;BME280;4483;48.622;9.230;2023-03-12T01:29:38;97539.72;;;-0.48;77.91
8894;BME280;4483;48.622;9.230;2023-03-12T01:32:05;97543.94;;;-0.47;77.77
8894;BME280;4483;48.622;9.230;2023-03-12T01:34:32;97551.53;;;-0.47;77.75
8894;BME280;4483;48.622;9.230;2023-03-12T01:37:00;97563.34;;;-0.46;78.27
8894;BME280;4483;48.622;9.230;2023-03-12T01:39:26;97563.34;;;-0.45;78.20
8894;BME280;4483;48.622;9.230;2023-03-12T01:41:53;97553.22;;;-0.43;78.19
8894;BME280;4483;48.622;9.230;2023-03-12T01:44:20;97554.91;;;-0.42;78.58
8894;BME280;4483;48.622;9.230;2023-03-12T01:46:48;97549.84;;;-0.41;78.45
8894;BME280;4483;48.622;9.230;2023-03-12T01:49:16;97555.75;;;-0.39;78.62
8894;BME280;4483;48.622;9.230;2023-03-12T01:51:49;97554.06;;;-0.37;78.40
8894;BME280;4483;48.622;9.230;2023-03-12T01:54:21;97555.72;;;-0.36;78.65
8894;BME280;4483;48.622;9.230;2023-03-12T01:56:49;97546.44;;;-0.38;79.27
8894;BME280;4483;48.622;9.230;2023-03-12T01:59:19;97551.50;;;-0.35;79.40
8894;BME280;4483;48.622;9.230;2023-03-12T02:01:49;97553.19;;;-0.31;79.54
8894;BME280;4483;48.622;9.230;2023-03-12T02:04:17;97553.19;;;-0.30;79.46
8894;BME280;4483;48.622;9.230;2023-03-12T02:06:48;97548.13;;;-0.28;79.51
8894;BME280;4483;48.622;9.230;2023-03-12T02:09:17;97551.47;;;-0.25;79.84
8894;BME280;4483;48.622;9.230;2023-03-12T02:11:46;97556.53;;;-0.23;80.03
8894;BME280;4483;48.622;9.230;2023-03-12T02:14:12;97553.16;;;-0.22;79.92
8894;BME280;4483;48.622;9.230;2023-03-12T02:16:39;97554.81;;;-0.18;80.14
8894;BME280;4483;48.622;9.230;2023-03-12T02:19:13;97553.13;;;-0.16;79.90
8894;BME280;4483;48.622;9.230;2023-03-12T02:21:42;97554.81;;;-0.15;80.17
8894;BME280;4483;48.622;9.230;2023-03-12T02:24:16;97553.13;;;-0.15;79.57
8894;BME280;4483;48.622;9.230;2023-03-12T02:26:46;97545.53;;;-0.13;80.13
8894;BME280;4483;48.622;9.230;2023-03-12T02:29:14;97548.06;;;-0.12;80.07
8894;BME280;4483;48.622;9.230;2023-03-12T02:31:43;97553.97;;;-0.11;80.34
8894;BME280;4483;48.622;9.230;2023-03-12T02:34:10;97553.97;;;-0.11;80.59
8894;BME280;4483;48.622;9.230;2023-03-12T02:36:37;97552.25;;;-0.09;81.00
8894;BME280;4483;48.622;9.230;2023-03-12T02:39:04;97548.06;;;-0.12;80.54
8894;BME280;4483;48.622;9.230;2023-03-12T02:41:33;97553.13;;;-0.10;80.61
8894;BME280;4483;48.622;9.230;2023-03-12T02:44:05;97547.19;;;-0.09;80.95
8894;BME280;4483;48.622;9.230;2023-03-12T02:46:37;97539.59;;;-0.06;81.12
8894;BME280;4483;48.622;9.230;2023-03-12T02:49:05;97542.97;;;-0.03;80.52
8894;BME280;4483;48.622;9.230;2023-03-12T02:51:31;97547.19;;;0.00;80.77
8894;BME280;4483;48.622;9.230;2023-03-12T02:53:58;97548.84;;;0.01;80.89
8894;BME280;4483;48.622;9.230;2023-03-12T02:56:26;97548.84;;;0.03;81.62
8894;BME280;4483;48.622;9.230;2023-03-12T02:58:53;97558.13;;;0.04;81.00
8894;BME280;4483;48.622;9.230;2023-03-12T03:01:21;97545.47;;;0.05;81.33
8894;BME280;4483;48.622;9.230;2023-03-12T03:03:48;97547.13;;;0.06;80.96
8894;BME280;4483;48.622;9.230;2023-03-12T03:06:15;97551.34;;;0.06;81.36
8894;BME280;4483;48.622;9.230;2023-03-12T03:08:42;97545.47;;;0.05;81.26
8894;BME280;4483;48.622;9.230;2023-03-12T03:11:09;97542.91;;;0.08;81.46
8894;BME280;4483;48.622;9.230;2023-03-12T03:13:37;97536.16;;;0.09;81.58
8894;BME280;4483;48.622;9.230;2023-03-12T03:16:04;97545.44;;;0.08;81.74
8894;BME280;4483;48.622;9.230;2023-03-12T03:18:32;97538.72;;;0.07;81.38
8894;BME280;4483;48.622;9.230;2023-03-12T03:21:01;97542.06;;;0.11;81.81
8894;BME280;4483;48.622;9.230;2023-03-12T03:23:28;97528.56;;;0.10;82.02
8894;BME280;4483;48.622;9.230;2023-03-12T03:25:55;97526.03;;;0.07;82.00
8894;BME280;4483;48.622;9.230;2023-03-12T03:28:23;97518.44;;;0.09;82.02
8894;BME280;4483;48.622;9.230;2023-03-12T03:30:51;97517.56;;;0.11;82.15
8894;BME280;4483;48.622;9.230;2023-03-12T03:33:18;97520.94;;;0.13;81.76
8894;BME280;4483;48.622;9.230;2023-03-12T03:35:46;97516.72;;;0.14;82.16
8894;BME280;4483;48.622;9.230;2023-03-12T03:38:13;97515.88;;;0.10;82.33
8894;BME280;4483;48.622;9.230;2023-03-12T03:40:40;97522.63;;;0.10;82.03
8894;BME280;4483;48.622;9.230;2023-03-12T03:43:06;97516.75;;;0.11;82.49
8894;BME280;4483;48.622;9.230;2023-03-12T03:45:33;97520.09;;;0.13;82.43
8894;BME280;4483;48.622;9.230;2023-03-12T03:47:59;97517.56;;;0.14;82.33
8894;BME280;4483;48.622;9.230;2023-03-12T03:50:26;97521.75;;;0.15;82.82
8894;BME280;4483;48.622;9.230;2023-03-12T03:52:54;97507.41;;;0.17;82.76
8894;BME280;4483;48.622;9.230;2023-03-12T03:55:22;97509.94;;;0.17;82.32
8894;BME280;4483;48.622;9.230;2023-03-12T03:57:48;97513.34;;;0.16;83.12
8894;BME280;4483;48.622;9.230;2023-03-12T04:00:15;97521.75;;;0.20;82.72
8894;BME280;4483;48.622;9.230;2023-03-12T04:02:42;97533.53;;;0.22;83.16
8894;BME280;4483;48.622;9.230;2023-03-12T04:05:09;97530.16;;;0.25;83.04
8894;BME280;4483;48.622;9.230;2023-03-12T04:07:36;97525.06;;;0.28;83.04
8894;BME280;4483;48.622;9.230;2023-03-12T04:10:05;97527.59;;;0.28;83.14
8894;BME280;4483;48.622;9.230;2023-03-12T04:12:32;97527.63;;;0.29;83.42
8894;BME280;4483;48.622;9.230;2023-03-12T04:14:58;97512.41;;;0.32;83.62
8894;BME280;4483;48.622;9.230;2023-03-12T04:17:25;97508.16;;;0.34;83.29
8894;BME280;4483;48.622;9.230;2023-03-12T04:19:53;97508.13;;;0.37;83.37
8894;BME280;4483;48.622;9.230;2023-03-12T04:22:20;97511.50;;;0.39;83.35
8894;BME280;4483;48.622;9.230;2023-03-12T04:24:47;97513.19;;;0.39;83.80
8894;BME280;4483;48.622;9.230;2023-03-12T04:27:15;97505.59;;;0.39;83.19
8894;BME280;4483;48.622;9.230;2023-03-12T04:29:42;97497.13;;;0.41;83.79
8894;BME280;4483;48.622;9.230;2023-03-12T04:32:09;97504.72;;;0.41;83.77
8894;BME280;4483;48.622;9.230;2023-03-12T04:34:36;97505.53;;;0.46;83.83
8894;BME280;4483;48.622;9.230;2023-03-12T04:37:02;97508.88;;;0.50;83.90
8894;BME280;4483;48.622;9.230;2023-03-12T04:39:29;97509.75;;;0.49;84.35
8894;BME280;4483;48.622;9.230;2023-03-12T04:41:56;97514.81;;;0.49;84.19
8894;BME280;4483;48.622;9.230;2023-03-12T04:44:24;97504.69;;;0.49;84.48
8894;BME280;4483;48.622;9.230;2023-03-12T04:46:51;97504.66;;;0.50;85.04
8894;BME280;4483;48.622;9.230;2023-03-12T04:49:17;97513.13;;;0.52;83.97
8894;BME280;4483;48.622;9.230;2023-03-12T04:51:44;97515.63;;;0.54;84.78
8894;BME280;4483;48.622;9.230;2023-03-12T04:54:11;97508.00;;;0.55;84.28
8894;BME280;4483;48.622;9.230;2023-03-12T04:56:37;97499.56;;;0.53;84.45
8894;BME280;4483;48.622;9.230;2023-03-12T04:59:05;97497.91;;;0.52;83.95
8894;BME280;4483;48.622;9.230;2023-03-12T05:01:35;97509.75;;;0.49;84.53
8894;BME280;4483;48.622;9.230;2023-03-12T05:04:03;97512.28;;;0.50;85.31
8894;BME280;4483;48.622;9.230;2023-03-12T05:06:30;97506.34;;;0.53;85.06
8894;BME280;4483;48.622;9.230;2023-03-12T05:08:57;97512.25;;;0.56;85.06
8894;BME280;4483;48.622;9.230;2023-03-12T05:11:24;97499.53;;;0.59;85.43
8894;BME280;4483;48.622;9.230;2023-03-12T05:13:51;97507.97;;;0.63;85.51
8894;BME280;4483;48.622;9.230;2023-03-12T05:16:18;97500.34;;;0.67;85.80
8894;BME280;4483;48.622;9.230;2023-03-12T05:18:46;97487.63;;;0.70;85.18
8894;BME280;4483;48.622;9.230;2023-03-12T05:21:15;97488.44;;;0.74;85.63
8894;BME280;4483;48.622;9.230;2023-03-12T05:23:43;97488.44;;;0.75;85.55
8894;BME280;4483;48.622;9.230;2023-03-12T05:26:15;97490.13;;;0.76;84.98
8894;BME280;4483;48.622;9.230;2023-03-12T05:28:42;97492.66;;;0.76;85.33
8894;BME280;4483;48.622;9.230;2023-03-12T05:31:10;97496.03;;;0.78;85.25
8894;BME280;4483;48.622;9.230;2023-03-12T05:33:37;97490.09;;;0.79;85.41
8894;BME280;4483;48.622;9.230;2023-03-12T05:36:06;97487.56;;;0.79;86.20
8894;BME280;4483;48.622;9.230;2023-03-12T05:38:33;97496.84;;;0.80;85.64
8894;BME280;4483;48.622;9.230;2023-03-12T05:41:00;97493.47;;;0.80;85.92
8894;BME280;4483;48.622;9.230;2023-03-12T05:43:27;97496.84;;;0.80;86.48
8894;BME280;4483;48.622;9.230;2023-03-12T05:45:57;97498.53;;;0.81;86.36
8894;BME280;4483;48.622;9.230;2023-03-12T05:48:24;97504.44;;;0.82;86.07
8894;BME280;4483;48.622;9.230;2023-03-12T05:50:50;97506.97;;;0.83;86.36
8894;BME280;4483;48.622;9.230;2023-03-12T05:53:18;97513.69;;;0.87;86.19
8894;BME280;4483;48.622;9.230;2023-03-12T05:55:45;97508.56;;;0.92;86.70
8894;BME280;4483;48.622;9.230;2023-03-12T05:58:12;97501.81;;;0.92;86.62
8894;BME280;4483;48.622;9.230;2023-03-12T06:00:40;97504.34;;;0.97;86.60
8894;BME280;4483;48.622;9.230;2023-03-12T06:03:07;97507.66;;;0.99;87.31
8894;BME280;4483;48.622;9.230;2023-03-12T06:05:35;97505.16;;;1.00;87.09
8894;BME280;4483;48.622;9.230;2023-03-12T06:08:02;97508.50;;;1.02;87.10
8894;BME280;4483;48.622;9.230;2023-03-12T06:10:30;97509.31;;;1.04;87.89
8894;BME280;4483;48.622;9.230;2023-03-12T06:12:57;97505.09;;;1.03;86.80
8894;BME280;4483;48.622;9.230;2023-03-12T06:15:24;97504.31;;;0.98;87.86
8894;BME280;4483;48.622;9.230;2023-03-12T06:17:51;97506.84;;;0.98;87.56
8894;BME280;4483;48.622;9.230;2023-03-12T06:20:18;97506.84;;;0.98;88.30
8894;BME280;4483;48.622;9.230;2023-03-12T06:22:44;97516.97;;;1.01;88.36
8894;BME280;4483;48.622;9.230;2023-03-12T06:25:11;97506.78;;;1.04;87.84
8894;BME280;4483;48.622;9.230;2023-03-12T06:27:40;97510.97;;;1.12;88.17
8894;BME280;4483;48.622;9.230;2023-03-12T06:30:08;97507.53;;;1.16;88.66
8894;BME280;4483;48.622;9.230;2023-03-12T06:32:35;97506.63;;;1.21;88.49
8894;BME280;4483;48.622;9.230;2023-03-12T06:35:02;97506.59;;;1.26;88.57
8894;BME280;4483;48.622;9.230;2023-03-12T06:37:30;97508.25;;;1.30;89.35
8894;BME280;4483;48.622;9.230;2023-03-12T06:39:57;97508.22;;;1.33;89.00
8894;BME280;4483;48.622;9.230;2023-03-12T06:42:24;97506.50;;;1.35;88.99
8894;BME280;4483;48.622;9.230;2023-03-12T06:44:53;97506.47;;;1.38;89.35
8894;BME280;4483;48.622;9.230;2023-03-12T06:47:19;97507.28;;;1.41;89.73
8894;BME280;4483;48.622;9.230;2023-03-12T06:49:46;97518.28;;;1.42;89.19
8894;BME280;4483;48.622;9.230;2023-03-12T06:52:13;97514.06;;;1.42;89.30
8894;BME280;4483;48.622;9.230;2023-03-12T06:54:40;97513.19;;;1.42;89.70
8894;BME280;4483;48.622;9.230;2023-03-12T06:57:06;97511.50;;;1.44;89.55
8894;BME280;4483;48.622;9.230;2023-03-12T06:59:33;97503.91;;;1.42;90.19
8894;BME280;4483;48.622;9.230;2023-03-12T07:02:01;97496.25;;;1.44;91.18
8894;BME280;4483;48.622;9.230;2023-03-12T07:04:28;97500.50;;;1.42;90.53
8894;BME280;4483;48.622;9.230;2023-03-12T07:06:54;97492.06;;;1.40;91.00
8894;BME280;4483;48.622;9.230;2023-03-12T07:09:21;97496.25;;;1.45;91.46
8894;BME280;4483;48.622;9.230;2023-03-12T07:11:48;97495.34;;;1.49;91.28
8894;BME280;4483;48.622;9.230;2023-03-12T07:14:14;97497.88;;;1.54;91.37
8894;BME280;4483;48.622;9.230;2023-03-12T07:16:41;97501.16;;;1.60;91.73
8894;BME280;4483;48.622;9.230;2023-03-12T07:19:09;97511.25;;;1.68;91.24
8894;BME280;4483;48.622;9.230;2023-03-12T07:21:36;97512.00;;;1.74;91.15
8894;BME280;4483;48.622;9.230;2023-03-12T07:24:02;97512.00;;;1.77;91.00
8894;BME280;4483;48.622;9.230;2023-03-12T07:26:32;97514.47;;;1.80;91.46
8894;BME280;4483;48.622;9.230;2023-03-12T07:28:59;97511.91;;;1.82;91.14
8894;BME280;4483;48.622;9.230;2023-03-12T07:31:26;97520.34;;;1.85;91.45
8894;BME280;4483;48.622;9.230;2023-03-12T07:33:52;97514.41;;;1.88;91.58
8894;BME280;4483;48.622;9.230;2023-03-12T07:36:20;97513.50;;;1.92;91.92
8894;BME280;4483;48.622;9.230;2023-03-12T07:38:47;97515.91;;;2.02;92.00
8894;BME280;4483;48.622;9.230;2023-03-12T07:41:14;97512.41;;;2.11;92.11
8894;BME280;4483;48.622;9.230;2023-03-12T07:43:41;97515.66;;;2.22;92.22
8894;BME280;4483;48.622;9.230;2023-03-12T07:46:07;97519.78;;;2.31;92.01
8894;BME280;4483;48.622;9.230;2023-03-12T07:48:34;97520.56;;;2.36;92.04
8894;BME280;4483;48.622;9.230;2023-03-12T07:51:00;97517.13;;;2.40;92.35
8894;BME280;4483;48.622;9.230;2023-03-12T07:53:29;97514.50;;;2.44;91.98
8894;BME280;4483;48.622;9.230;2023-03-12T07:55:56;97510.22;;;2.48;91.91
8894;BME280;4483;48.622;9.230;2023-03-12T07:58:22;97505.06;;;2.52;92.35
8894;BME280;4483;48.622;9.230;2023-03-12T08:00:49;97496.28;;;2.71;91.88
8894;BME280;4483;48.622;9.230;2023-03-12T08:03:17;97500.78;;;3.09;91.80
8894;BME280;4483;48.622;9.230;2023-03-12T08:05:44;97497.19;;;3.21;91.34
8894;BME280;4483;48.622;9.230;2023-03-12T08:08:11;97499.66;;;3.25;91.12
8894;BME280;4483;48.622;9.230;2023-03-12T08:10:39;97498.19;;;3.59;91.25
8894;BME280;4483;48.622;9.230;2023-03-12T08:13:06;97501.44;;;4.08;90.62
8894;BME280;4483;48.622;9.230;2023-03-12T08:15:32;97505.63;;;4.87;90.45
8894;BME280;4483;48.622;9.230;2023-03-12T08:17:59;97494.25;;;5.36;87.92
8894;BME280;4483;48.622;9.230;2023-03-12T08:20:26;97489.59;;;5.82;87.02
8894;BME280;4483;48.622;9.230;2023-03-12T08:22:52;97493.34;;;6.01;84.89
8894;BME280;4483;48.622;9.230;2023-03-12T08:25:19;97492.84;;;6.18;84.65
8894;BME280;4483;48.622;9.230;2023-03-12T08:27:50;97496.00;;;5.98;84.46
8894;BME280;4483;48.622;9.230;2023-03-12T08:30:16;97485.66;;;5.70;83.86
8894;BME280;4483;48.622;9.230;2023-03-12T08:32:43;97497.25;;;5.50;84.81
8894;BME280;4483;48.622;9.230;2023-03-12T08:35:10;97505.44;;;5.30;85.99
8894;BME280;4483;48.622;9.230;2023-03-12T08:37:36;97496.53;;;5.13;86.02
8894;BME280;4483;48.622;9.230;2023-03-12T08:40:04;97507.13;;;4.97;86.56
8894;BME280;4483;48.622;9.230;2023-03-12T08:42:37;97496.19;;;4.92;87.96
8894;BME280;4483;48.622;9.230;2023-03-12T08:45:06;97504.75;;;4.90;88.29
8894;BME280;4483;48.622;9.230;2023-03-12T08:47:33;97511.59;;;4.88;88.07
8894;BME280;4483;48.622;9.230;2023-03-12T08:50:00;97510.75;;;4.87;88.39
8894;BME280;4483;48.622;9.230;2023-03-12T08:52:26;97507.38;;;4.85;88.83
8894;BME280;4483;48.622;9.230;2023-03-12T08:54:53;97498.72;;;4.92;88.85
8894;BME280;4483;48.622;9.230;2023-03-12T08:57:20;97505.28;;;5.02;89.87
8894;BME280;4483;48.622;9.230;2023-03-12T08:59:47;97503.50;;;5.06;89.71
8894;BME280;4483;48.622;9.230;2023-03-12T09:02:16;97504.34;;;5.06;89.78
8894;BME280;4483;48.622;9.230;2023-03-12T09:04:46;97496.72;;;5.05;89.90
8894;BME280;4483;48.622;9.230;2023-03-12T09:07:13;97507.78;;;5.04;89.92
8894;BME280;4483;48.622;9.230;2023-03-12T09:09:42;97512.00;;;5.06;90.82
8894;BME280;4483;48.622;9.230;2023-03-12T09:12:09;97511.09;;;5.07;91.03
8894;BME280;4483;48.622;9.230;2023-03-12T09:14:36;97511.09;;;5.07;90.84
8894;BME280;4483;48.622;9.230;2023-03-12T09:17:03;97507.75;;;5.05;91.17
8894;BME280;4483;48.622;9.230;2023-03-12T09:19:31;97504.25;;;5.09;91.49
8894;BME280;4483;48.622;9.230;2023-03-12T09:21:58;97508.28;;;5.20;93.10
8894;BME280;4483;48.622;9.230;2023-03-12T09:24:24;97507.13;;;5.31;91.98
8894;BME280;4483;48.622;9.230;2023-03-12T09:26:51;97504.31;;;5.42;91.80
8894;BME280;4483;48.622;9.230;2023-03-12T09:29:18;97508.00;;;5.62;91.48
8894;BME280;4483;48.622;9.230;2023-03-12T09:31:45;97508.44;;;5.78;92.58
8894;BME280;4483;48.622;9.230;2023-03-12T09:34:12;97518.47;;;5.87;92.18
8894;BME280;4483;48.622;9.230;2023-03-12T09:36:40;97513.22;;;5.91;92.26
8894;BME280;4483;48.622;9.230;2023-03-12T09:39:06;97519.81;;;6.00;92.71
8894;BME280;4483;48.622;9.230;2023-03-12T09:41:35;97522.00;;;6.12;92.69
8894;BME280;4483;48.622;9.230;2023-03-12T09:44:09;97520.66;;;6.30;93.65
8894;BME280;4483;48.622;9.230;2023-03-12T09:46:45;97522.47;;;6.54;93.27
8894;BME280;4483;48.622;9.230;2023-03-12T09:49:17;97523.06;;;6.63;93.12
8894;BME280;4483;48.622;9.230;2023-03-12T09:51:50;97516.84;;;6.72;93.72
8894;BME280;4483;48.622;9.230;2023-03-12T09:54:23;97523.50;;;6.77;94.40
8894;BME280;4483;48.622;9.230;2023-03-12T09:56:51;97518.97;;;6.85;94.47
8894;BME280;4483;48.622;9.230;2023-03-12T09:59:21;97519.28;;;7.02;94.70
8894;BME280;4483;48.622;9.230;2023-03-12T10:01:50;97515.09;;;7.26;95.02
8894;BME280;4483;48.622;9.230;2023-03-12T10:04:24;97522.81;;;7.51;95.96
8894;BME280;4483;48.622;9.230;2023-03-12T10:07:00;97511.75;;;7.73;95.96
8894;BME280;4483;48.622;9.230;2023-03-12T10:09:51;97517.50;;;8.04;96.88
8894;BME280;4483;48.622;9.230;2023-03-12T10:12:24;97520.84;;;8.31;95.57
8894;BME280;4483;48.622;9.230;2023-03-12T10:15:06;97527.97;;;8.46;95.79
8894;BME280;4483;48.622;9.230;2023-03-12T10:17:46;97512.81;;;8.62;96.79
8894;BME280;4483;48.622;9.230;2023-03-12T10:20:39;97517.31;;;8.78;96.07
8894;BME280;4483;48.622;9.230;2023-03-12T10:23:12;97520.06;;;8.95;95.36
8894;BME280;4483;48.622;9.230;2023-03-12T10:25:47;97514.31;;;9.10;95.25
8894;BME280;4483;48.622;9.230;2023-03-12T10:28:18;97512.09;;;9.23;95.00
8894;BME280;4483;48.622;9.230;2023-03-12T10:30:50;97516.69;;;9.37;95.81
8894;BME280;4483;48.622;9.230;2023-03-12T10:33:18;97508.97;;;9.57;96.04
8894;BME280;4483;48.622;9.230;2023-03-12T10:35:46;97513.09;;;9.81;95.69
8894;BME280;4483;48.622;9.230;2023-03-12T10:38:27;97519.69;;;10.06;95.12
8894;BME280;4483;48.622;9.230;2023-03-12T10:40:54;97510.41;;;10.23;95.39
8894;BME280;4483;48.622;9.230;2023-03-12T10:43:21;97520.75;;;10.41;94.49
8894;BME280;4483;48.622;9.230;2023-03-12T10:45:56;97520.88;;;10.38;94.22
8894;BME280;4483;48.622;9.230;2023-03-12T10:48:27;97530.47;;;10.35;94.53
8894;BME280;4483;48.622;9.230;2023-03-12T10:51:02;97523.31;;;10.41;94.66
8894;BME280;4483;48.622;9.230;2023-03-12T10:53:31;97534.94;;;10.50;94.42
8894;BME280;4483;48.622;9.230;2023-03-12T10:56:03;97523.41;;;10.58;94.49
8894;BME280;4483;48.622;9.230;2023-03-12T10:58:32;97517.81;;;10.67;94.14
8894;BME280;4483;48.622;9.230;2023-03-12T11:01:01;97529.78;;;10.87;94.02
8894;BME280;4483;48.622;9.230;2023-03-12T11:03:28;97521.97;;;11.41;92.48
8894;BME280;4483;48.622;9.230;2023-03-12T11:05:57;97519.34;;;11.60;91.88
8894;BME280;4483;48.622;9.230;2023-03-12T11:08:26;97521.53;;;12.01;91.82
8894;BME280;4483;48.622;9.230;2023-03-12T11:10:56;97525.19;;;12.30;88.89
8894;BME280;4483;48.622;9.230;2023-03-12T11:13:26;97528.16;;;12.40;88.40
8894;BME280;4483;48.622;9.230;2023-03-12T11:15:55;97524.44;;;12.28;86.33
8894;BME280;4483;48.622;9.230;2023-03-12T11:18:28;97536.50;;;12.28;87.26
8894;BME280;4483;48.622;9.230;2023-03-12T11:21:14;97540.41;;;12.19;87.18
8894;BME280;4483;48.622;9.230;2023-03-12T11:23:44;97537.84;;;12.19;87.46
8894;BME280;4483;48.622;9.230;2023-03-12T11:26:17;97530.84;;;12.21;87.90
8894;BME280;4483;48.622;9.230;2023-03-12T11:28:46;97541.19;;;12.21;86.58
8894;BME280;4483;48.622;9.230;2023-03-12T11:31:19;97527.63;;;12.33;87.31
8894;BME280;4483;48.622;9.230;2023-03-12T11:33:47;97530.97;;;12.51;85.83
8894;BME280;4483;48.622;9.230;2023-03-12T11:36:25;97534.81;;;12.59;85.67
8894;BME280;4483;48.622;9.230;2023-03-12T11:39:00;97541.94;;;12.87;84.31
8894;BME280;4483;48.622;9.230;2023-03-12T11:41:39;97524.41;;;12.92;80.69
8894;BME280;4483;48.622;9.230;2023-03-12T11:44:24;97523.66;;;12.90;80.44
8894;BME280;4483;48.622;9.230;2023-03-12T11:47:05;97522.81;;;12.89;80.15
8894;BME280;4483;48.622;9.230;2023-03-12T11:49:46;97527.41;;;12.84;80.36
8894;BME280;4483;48.622;9.230;2023-03-12T11:52:22;97511.25;;;12.96;79.38
8894;BME280;4483;48.622;9.230;2023-03-12T11:55:10;97527.28;;;13.03;78.44
8894;BME280;4483;48.622;9.230;2023-03-12T11:57:51;97517.91;;;13.00;78.11
8894;BME280;4483;48.622;9.230;2023-03-12T12:00:25;97523.59;;;13.07;77.32
8894;BME280;4483;48.622;9.230;2023-03-12T12:03:34;97515.53;;;13.72;76.67
8894;BME280;4483;48.622;9.230;2023-03-12T12:06:07;97513.03;;;13.85;74.23
8894;BME280;4483;48.622;9.230;2023-03-12T12:09:01;97511.19;;;13.87;73.81
8894;BME280;4483;48.622;9.230;2023-03-12T12:11:41;97519.81;;;13.87;73.15
8894;BME280;4483;48.622;9.230;2023-03-12T12:14:25;97507.78;;;13.86;71.90
8894;BME280;4483;48.622;9.230;2023-03-12T12:17:02;97509.94;;;14.08;71.78
8894;BME280;4483;48.622;9.230;2023-03-12T12:19:46;97512.53;;;14.08;68.57
8894;BME280;4483;48.622;9.230;2023-03-12T12:22:37;97493.91;;;14.01;67.84
8894;BME280;4483;48.622;9.230;2023-03-12T12:28:22;97476.56;;;14.72;67.76
8894;BME280;4483;48.622;9.230;2023-03-12T12:31:03;97483.25;;;14.76;66.79
8894;BME280;4483;48.622;9.230;2023-03-12T12:33:48;97474.94;;;14.71;64.10
8894;BME280;4483;48.622;9.230;2023-03-12T12:36:19;97472.88;;;14.76;64.60
8894;BME280;4483;48.622;9.230;2023-03-12T12:38:52;97470.06;;;14.93;64.66
8894;BME280;4483;48.622;9.230;2023-03-12T12:41:24;97469.25;;;15.05;63.95
8894;BME280;4483;48.622;9.230;2023-03-12T12:43:54;97465.59;;;15.35;61.74
8894;BME280;4483;48.622;9.230;2023-03-12T12:46:27;97451.09;;;15.32;61.68
8894;BME280;4483;48.622;9.230;2023-03-12T12:49:00;97459.50;;;15.36;59.55
8894;BME280;4483;48.622;9.230;2023-03-12T12:51:30;97462.25;;;15.20;60.18
8894;BME280;4483;48.622;9.230;2023-03-12T12:54:00;97466.31;;;15.24;60.26
8894;BME280;4483;48.622;9.230;2023-03-12T12:56:33;97464.56;;;15.25;59.02
8894;BME280;4483;48.622;9.230;2023-03-12T12:59:27;97445.69;;;15.35;58.68
8894;BME280;4483;48.622;9.230;2023-03-12T13:01:59;97456.13;;;15.21;58.40
8894;BME280;4483;48.622;9.230;2023-03-12T13:04:30;97468.72;;;15.00;57.96
8894;BME280;4483;48.622;9.230;2023-03-12T13:07:28;97462.81;;;14.72;59.70
8894;BME280;4483;48.622;9.230;2023-03-12T13:09:57;97464.97;;;14.51;59.76
8894;BME280;4483;48.622;9.230;2023-03-12T13:12:28;97466.28;;;14.44;59.64
8894;BME280;4483;48.622;9.230;2023-03-12T13:14:57;97470.53;;;14.45;60.00
8894;BME280;4483;48.622;9.230;2023-03-12T13:17:29;97472.97;;;14.75;59.58
8894;BME280;4483;48.622;9.230;2023-03-12T13:19:59;97469.94;;;15.22;59.25
8894;BME280;4483;48.622;9.230;2023-03-12T13:22:39;97479.97;;;15.13;57.60
8894;BME280;4483;48.622;9.230;2023-03-12T13:25:27;97463.66;;;15.38;58.33
8894;BME280;4483;48.622;9.230;2023-03-12T13:27:57;97468.31;;;15.60;57.87
8894;BME280;4483;48.622;9.230;2023-03-12T13:30:48;97479.44;;;15.87;57.42
8894;BME280;4483;48.622;9.230;2023-03-12T13:33:18;97472.16;;;15.67;56.88
8894;BME280;4483;48.622;9.230;2023-03-12T13:36:04;97482.00;;;15.35;56.85
8894;BME280;4483;48.622;9.230;2023-03-12T13:38:37;97489.19;;;15.05;57.93
8894;BME280;4483;48.622;9.230;2023-03-12T13:41:05;97489.16;;;14.78;58.83
8894;BME280;4483;48.622;9.230;2023-03-12T13:43:48;97490.41;;;14.59;59.17